sensor_id;sensor_type;location;lat;lon;timestamp;pressure;altitude;pressure_sealevel;temperature;humidity
51315;BME280;65787;59.922;10.742;2023-05-22T00:00:50;101748.75;;;23.33;24.21
51315;BME280;65787;59.922;10.742;2023-05-22T00:03:18;101753.91;;;23.29;24.26
51315;BME280;65787;59.922;10.742;2023-05-22T00:05:44;101742.94;;;23.29;24.25
51315;BME280;65787;59.922;10.742;2023-05-22T00:08:09;101752.00;;;23.30;24.21
51315;BME280;65787;59.922;10.742;2023-05-22T00:10:39;101748.56;;;23.23;23.96
51315;BME280;65787;59.922;10.742;2023-05-22T00:13:04;101749.41;;;23.23;23.95
51315;BME280;65787;59.922;10.742;2023-05-22T00:15:30;101745.84;;;23.23;24.32
51315;BME280;65787;59.922;10.742;2023-05-22T00:17:55;101743.00;;;23.17;24.76
51315;BME280;65787;59.922;10.742;2023-05-22T00:20:20;101744.22;;;23.10;24.36
51315;BME280;65787;59.922;10.742;2023-05-22T00:22:47;101734.03;;;23.05;23.77
51315;BME280;65787;59.922;10.742;2023-05-22T00:25:13;101741.28;;;22.99;24.47
51315;BME280;65787;59.922;10.742;2023-05-22T00:27:39;101740.09;;;22.95;24.20
51315;BME280;65787;59.922;10.742;2023-05-22T00:30:05;101742.94;;;23.00;24.09
51315;BME280;65787;59.922;10.742;2023-05-22T00:32:31;101740.09;;;22.95;24.78
51315;BME280;65787;59.922;10.742;2023-05-22T00:34:56;101742.25;;;22.93;24.87
51315;BME280;65787;59.922;10.742;2023-05-22T00:37:22;101741.09;;;22.89;24.60
51315;BME280;65787;59.922;10.742;2023-05-22T00:39:47;101732.53;;;22.86;24.59
51315;BME280;65787;59.922;10.742;2023-05-22T00:42:13;101737.28;;;22.90;24.80
51315;BME280;65787;59.922;10.742;2023-05-22T00:44:38;101729.88;;;22.91;24.43
51315;BME280;65787;59.922;10.742;2023-05-22T00:47:03;101739.75;;;22.92;24.45
51315;BME280;65787;59.922;10.742;2023-05-22T00:49:29;101729.53;;;22.87;25.26
51315;BME280;65787;59.922;10.742;2023-05-22T00:51:54;101740.97;;;22.84;24.64
51315;BME280;65787;59.922;10.742;2023-05-22T00:54:19;101735.50;;;22.84;24.83
51315;BME280;65787;59.922;10.742;2023-05-22T00:56:45;101745.19;;;22.75;25.29
51315;BME280;65787;59.922;10.742;2023-05-22T00:59:12;101741.16;;;22.66;24.75
51315;BME280;65787;59.922;10.742;2023-05-22T01:01:38;101747.28;;;22.56;25.20
51315;BME280;65787;59.922;10.742;2023-05-22T01:04:06;101744.94;;;22.48;25.56
51315;BME280;65787;59.922;10.742;2023-05-22T01:06:34;101742.91;;;22.43;25.78
51315;BME280;65787;59.922;10.742;2023-05-22T01:08:59;101737.66;;;22.41;25.35
51315;BME280;65787;59.922;10.742;2023-05-22T01:11:27;101751.72;;;22.33;25.57
51315;BME280;65787;59.922;10.742;2023-05-22T01:14:03;101753.38;;;22.22;26.06
51315;BME280;65787;59.922;10.742;2023-05-22T01:16:36;101748.16;;;22.09;26.06
51315;BME280;65787;59.922;10.742;2023-05-22T01:22:33;101748.63;;;22.06;26.24
51315;BME280;65787;59.922;10.742;2023-05-22T01:24:47;101747.09;;;22.10;25.99
51315;BME280;65787;59.922;10.742;2023-05-22T01:29:46;101756.47;;;22.02;25.92
51315;BME280;65787;59.922;10.742;2023-05-22T01:32:13;101752.22;;;22.07;25.35
51315;BME280;65787;59.922;10.742;2023-05-22T01:34:41;101749.34;;;22.13;25.53
51315;BME280;65787;59.922;10.742;2023-05-22T01:37:08;101749.84;;;22.10;25.99
51315;BME280;65787;59.922;10.742;2023-05-22T01:39:33;101750.78;;;22.04;25.96
51315;BME280;65787;59.922;10.742;2023-05-22T01:42:00;101751.97;;;21.96;26.05
51315;BME280;65787;59.922;10.742;2023-05-22T01:44:26;101753.41;;;21.87;26.20
51315;BME280;65787;59.922;10.742;2023-05-22T01:46:51;101747.34;;;21.85;26.41
51315;BME280;65787;59.922;10.742;2023-05-22T01:49:16;101751.84;;;21.79;26.32
51315;BME280;65787;59.922;10.742;2023-05-22T01:51:46;101751.41;;;21.82;26.65
51315;BME280;65787;59.922;10.742;2023-05-22T01:54:16;101748.06;;;21.80;26.66
51315;BME280;65787;59.922;10.742;2023-05-22T01:56:49;101739.97;;;21.74;26.15
51315;BME280;65787;59.922;10.742;2023-05-22T01:59:22;101750.44;;;21.77;25.96
51315;BME280;65787;59.922;10.742;2023-05-22T02:01:50;101736.41;;;21.73;26.71
51315;BME280;65787;59.922;10.742;2023-05-22T02:04:16;101739.25;;;21.67;26.91
51315;BME280;65787;59.922;10.742;2023-05-22T02:06:42;101740.66;;;21.69;26.22
51315;BME280;65787;59.922;10.742;2023-05-22T02:09:08;101746.75;;;21.71;26.15
51315;BME280;65787;59.922;10.742;2023-05-22T02:11:34;101739.47;;;21.65;26.75
51315;BME280;65787;59.922;10.742;2023-05-22T02:14:02;101740.44;;;21.59;26.52
51315;BME280;65787;59.922;10.742;2023-05-22T02:16:28;101746.13;;;21.57;26.78
51315;BME280;65787;59.922;10.742;2023-05-22T02:18:57;101739.25;;;21.55;27.87
51315;BME280;65787;59.922;10.742;2023-05-22T02:21:22;101741.63;;;21.51;26.78
51315;BME280;65787;59.922;10.742;2023-05-22T02:23:48;101746.22;;;21.51;27.58
51315;BME280;65787;59.922;10.742;2023-05-22T02:26:13;101740.16;;;21.49;27.31
51315;BME280;65787;59.922;10.742;2023-05-22T02:28:38;101739.94;;;21.50;27.17
51315;BME280;65787;59.922;10.742;2023-05-22T02:31:06;101741.13;;;21.54;27.14
51315;BME280;65787;59.922;10.742;2023-05-22T02:33:32;101741.13;;;21.54;27.17
51315;BME280;65787;59.922;10.742;2023-05-22T02:35:57;101741.63;;;21.51;26.99
51315;BME280;65787;59.922;10.742;2023-05-22T02:38:22;101733.66;;;21.50;27.03
51315;BME280;65787;59.922;10.742;2023-05-22T02:40:48;101737.69;;;21.47;27.31
51315;BME280;65787;59.922;10.742;2023-05-22T02:43:13;101740.03;;;21.43;27.38
51315;BME280;65787;59.922;10.742;2023-05-22T02:45:39;101736.34;;;21.38;27.51
51315;BME280;65787;59.922;10.742;2023-05-22T02:48:04;101732.66;;;21.32;27.48
51315;BME280;65787;59.922;10.742;2023-05-22T02:50:29;101728.47;;;21.30;27.31
51315;BME280;65787;59.922;10.742;2023-05-22T02:52:55;101734.38;;;21.26;27.79
51315;BME280;65787;59.922;10.742;2023-05-22T02:55:20;101732.03;;;21.30;27.36
51315;BME280;65787;59.922;10.742;2023-05-22T02:57:46;101730.13;;;21.31;27.38
51315;BME280;65787;59.922;10.742;2023-05-22T03:00:11;101728.22;;;21.31;27.14
51315;BME280;65787;59.922;10.742;2023-05-22T03:02:37;101728.69;;;21.28;27.46
51315;BME280;65787;59.922;10.742;2023-05-22T03:05:03;101721.81;;;21.25;27.20
51315;BME280;65787;59.922;10.742;2023-05-22T03:07:29;101727.03;;;21.27;27.13
51315;BME280;65787;59.922;10.742;2023-05-22T03:09:54;101717.75;;;21.28;27.64
51315;BME280;65787;59.922;10.742;2023-05-22T03:12:19;101723.94;;;21.23;27.73
51315;BME280;65787;59.922;10.742;2023-05-22T03:14:45;101722.75;;;21.19;27.87
51315;BME280;65787;59.922;10.742;2023-05-22T03:17:10;101723.94;;;21.23;27.34
51315;BME280;65787;59.922;10.742;2023-05-22T03:19:35;101717.66;;;21.23;27.51
51315;BME280;65787;59.922;10.742;2023-05-22T03:22:01;101720.72;;;21.26;27.77
51315;BME280;65787;59.922;10.742;2023-05-22T03:24:26;101715.03;;;21.28;27.19
51315;BME280;65787;59.922;10.742;2023-05-22T03:26:51;101713.38;;;21.27;27.42
51315;BME280;65787;59.922;10.742;2023-05-22T03:29:17;101714.94;;;21.35;27.33
51315;BME280;65787;59.922;10.742;2023-05-22T03:31:42;101710.53;;;21.34;27.13
51315;BME280;65787;59.922;10.742;2023-05-22T03:34:07;101711.59;;;21.33;27.49
51315;BME280;65787;59.922;10.742;2023-05-22T03:36:33;101711.25;;;21.29;27.73
51315;BME280;65787;59.922;10.742;2023-05-22T03:38:58;101719.91;;;21.26;27.50
51315;BME280;65787;59.922;10.742;2023-05-22T03:41:23;101713.00;;;21.23;27.59
51315;BME280;65787;59.922;10.742;2023-05-22T03:43:48;101709.47;;;21.23;27.69
51315;BME280;65787;59.922;10.742;2023-05-22T03:46:14;101710.28;;;21.23;28.24
51315;BME280;65787;59.922;10.742;2023-05-22T03:48:39;101709.47;;;21.23;27.27
51315;BME280;65787;59.922;10.742;2023-05-22T03:51:04;101704.81;;;21.23;27.72
51315;BME280;65787;59.922;10.742;2023-05-22T03:53:30;101713.38;;;21.27;27.21
51315;BME280;65787;59.922;10.742;2023-05-22T03:55:55;101710.28;;;21.35;27.44
51315;BME280;65787;59.922;10.742;2023-05-22T03:58:23;101702.16;;;21.47;26.68
51315;BME280;65787;59.922;10.742;2023-05-22T04:00:52;101702.03;;;21.54;26.87
51315;BME280;65787;59.922;10.742;2023-05-22T04:03:17;101694.06;;;21.52;26.93
51315;BME280;65787;59.922;10.742;2023-05-22T04:05:43;101701.66;;;21.50;27.12
51315;BME280;65787;59.922;10.742;2023-05-22T04:08:08;101697.28;;;21.49;26.85
51315;BME280;65787;59.922;10.742;2023-05-22T04:10:34;101700.47;;;21.46;26.85
51315;BME280;65787;59.922;10.742;2023-05-22T04:13:01;101704.72;;;21.42;27.32
51315;BME280;65787;59.922;10.742;2023-05-22T04:15:26;101704.91;;;21.47;27.07
51315;BME280;65787;59.922;10.742;2023-05-22T04:17:52;101699.75;;;21.51;26.97
51315;BME280;65787;59.922;10.742;2023-05-22T04:20:18;101699.44;;;21.59;27.00
51315;BME280;65787;59.922;10.742;2023-05-22T04:22:46;101700.16;;;21.66;26.92
51315;BME280;65787;59.922;10.742;2023-05-22T04:25:13;101688.25;;;21.72;26.71
51315;BME280;65787;59.922;10.742;2023-05-22T04:27:38;101681.13;;;21.71;26.78
51315;BME280;65787;59.922;10.742;2023-05-22T04:30:05;101695.72;;;21.65;27.08
51315;BME280;65787;59.922;10.742;2023-05-22T04:32:31;101683.97;;;21.64;27.32
51315;BME280;65787;59.922;10.742;2023-05-22T04:34:56;101691.81;;;21.73;26.97
51315;BME280;65787;59.922;10.742;2023-05-22T04:37:24;101687.06;;;21.80;26.65
51315;BME280;65787;59.922;10.742;2023-05-22T04:39:52;101684.44;;;21.85;26.86
51315;BME280;65787;59.922;10.742;2023-05-22T04:42:21;101685.84;;;21.88;26.67
51315;BME280;65787;59.922;10.742;2023-05-22T04:44:47;101676.34;;;21.90;27.06
51315;BME280;65787;59.922;10.742;2023-05-22T04:47:12;101678.84;;;21.92;26.75
51315;BME280;65787;59.922;10.742;2023-05-22T04:49:41;101673.75;;;21.95;26.99
51315;BME280;65787;59.922;10.742;2023-05-22T04:52:07;101671.31;;;21.99;26.75
51315;BME280;65787;59.922;10.742;2023-05-22T04:54:32;101670.84;;;22.02;26.41
51315;BME280;65787;59.922;10.742;2023-05-22T04:56:58;101672.63;;;22.08;26.38
51315;BME280;65787;59.922;10.742;2023-05-22T04:59:24;101668.22;;;22.07;26.56
51315;BME280;65787;59.922;10.742;2023-05-22T05:01:50;101668.94;;;22.14;26.53
51315;BME280;65787;59.922;10.742;2023-05-22T05:04:16;101673.91;;;22.17;26.24
51315;BME280;65787;59.922;10.742;2023-05-22T05:06:44;101666.78;;;22.28;26.24
51315;BME280;65787;59.922;10.742;2023-05-22T05:09:09;101672.47;;;22.27;27.05
51315;BME280;65787;59.922;10.742;2023-05-22T05:11:35;101665.94;;;22.28;26.10
51315;BME280;65787;59.922;10.742;2023-05-22T05:14:00;101665.72;;;22.29;26.06
51315;BME280;65787;59.922;10.742;2023-05-22T05:16:25;101659.50;;;22.34;26.34
51315;BME280;65787;59.922;10.742;2023-05-22T05:18:51;101664.59;;;22.42;26.38
51315;BME280;65787;59.922;10.742;2023-05-22T05:21:17;101664.59;;;22.42;26.82
51315;BME280;65787;59.922;10.742;2023-05-22T05:23:43;101659.81;;;22.49;26.26
51315;BME280;65787;59.922;10.742;2023-05-22T05:26:08;101658.84;;;22.55;26.67
51315;BME280;65787;59.922;10.742;2023-05-22T05:28:34;101660.00;;;22.59;26.18
51315;BME280;65787;59.922;10.742;2023-05-22T05:30:59;101652.72;;;22.65;26.17
51315;BME280;65787;59.922;10.742;2023-05-22T05:33:25;101658.88;;;22.72;25.87
51315;BME280;65787;59.922;10.742;2023-05-22T05:35:51;101658.38;;;22.75;25.97
51315;BME280;65787;59.922;10.742;2023-05-22T05:38:17;101652.06;;;22.75;25.87
51315;BME280;65787;59.922;10.742;2023-05-22T05:40:43;101658.47;;;22.80;25.81
51315;BME280;65787;59.922;10.742;2023-05-22T05:43:08;101648.84;;;22.78;25.62
51315;BME280;65787;59.922;10.742;2023-05-22T05:45:33;101646.44;;;22.81;25.73
51315;BME280;65787;59.922;10.742;2023-05-22T05:47:59;101645.97;;;22.85;26.03
51315;BME280;65787;59.922;10.742;2023-05-22T05:50:24;101638.38;;;22.92;25.60
51315;BME280;65787;59.922;10.742;2023-05-22T05:52:49;101636.84;;;22.96;25.48
51315;BME280;65787;59.922;10.742;2023-05-22T05:55:15;101641.69;;;23.06;25.69
51315;BME280;65787;59.922;10.742;2023-05-22T05:57:40;101644.75;;;23.09;25.67
51315;BME280;65787;59.922;10.742;2023-05-22T06:00:06;101639.38;;;23.14;25.55
51315;BME280;65787;59.922;10.742;2023-05-22T06:02:34;101638.59;;;23.19;25.71
51315;BME280;65787;59.922;10.742;2023-05-22T06:05:00;101639.03;;;23.28;25.52
51315;BME280;65787;59.922;10.742;2023-05-22T06:07:26;101640.09;;;23.27;25.45
51315;BME280;65787;59.922;10.742;2023-05-22T06:09:52;101646.47;;;23.32;25.28
51315;BME280;65787;59.922;10.742;2023-05-22T06:12:17;101645.75;;;23.37;25.61
51315;BME280;65787;59.922;10.742;2023-05-22T06:14:43;101649.63;;;23.41;25.96
51315;BME280;65787;59.922;10.742;2023-05-22T06:17:08;101648.25;;;23.38;25.77
51315;BME280;65787;59.922;10.742;2023-05-22T06:19:36;101653.72;;;23.38;26.66
51315;BME280;65787;59.922;10.742;2023-05-22T06:22:01;101647.72;;;23.42;27.81
51315;BME280;65787;59.922;10.742;2023-05-22T06:24:26;101645.41;;;23.33;27.35
51315;BME280;65787;59.922;10.742;2023-05-22T06:26:52;101651.94;;;23.49;27.17
51315;BME280;65787;59.922;10.742;2023-05-22T06:29:17;101647.97;;;23.57;26.84
51315;BME280;65787;59.922;10.742;2023-05-22T06:31:42;101658.75;;;23.64;26.29
51315;BME280;65787;59.922;10.742;2023-05-22T06:34:07;101652.00;;;23.71;26.10
51315;BME280;65787;59.922;10.742;2023-05-22T06:36:33;101655.91;;;23.75;25.86
51315;BME280;65787;59.922;10.742;2023-05-22T06:38:59;101646.94;;;23.80;25.89
51315;BME280;65787;59.922;10.742;2023-05-22T06:41:24;101650.16;;;23.77;25.67
51315;BME280;65787;59.922;10.742;2023-05-22T06:43:50;101652.75;;;23.84;25.21
51315;BME280;65787;59.922;10.742;2023-05-22T06:46:15;101648.16;;;23.89;25.25
51315;BME280;65787;59.922;10.742;2023-05-22T06:48:41;101639.56;;;24.03;24.85
51315;BME280;65787;59.922;10.742;2023-05-22T06:51:06;101645.94;;;24.08;24.83
51315;BME280;65787;59.922;10.742;2023-05-22T06:53:33;101633.63;;;24.11;24.78
51315;BME280;65787;59.922;10.742;2023-05-22T06:55:59;101631.78;;;24.17;24.89
51315;BME280;65787;59.922;10.742;2023-05-22T06:58:25;101631.56;;;24.23;24.82
51315;BME280;65787;59.922;10.742;2023-05-22T07:00:50;101629.69;;;24.29;24.31
51315;BME280;65787;59.922;10.742;2023-05-22T07:03:16;101621.47;;;24.29;24.50
51315;BME280;65787;59.922;10.742;2023-05-22T07:05:41;101627.03;;;24.34;24.43
51315;BME280;65787;59.922;10.742;2023-05-22T07:08:06;101621.84;;;24.38;24.43
51315;BME280;65787;59.922;10.742;2023-05-22T07:10:32;101624.09;;;24.41;24.34
51315;BME280;65787;59.922;10.742;2023-05-22T07:12:57;101621.38;;;24.46;24.20
51315;BME280;65787;59.922;10.742;2023-05-22T07:15:23;101616.19;;;24.49;24.48
51315;BME280;65787;59.922;10.742;2023-05-22T07:17:48;101617.41;;;24.59;24.23
51315;BME280;65787;59.922;10.742;2023-05-22T07:20:13;101608.91;;;24.60;24.12
51315;BME280;65787;59.922;10.742;2023-05-22T07:22:40;101615.84;;;24.68;24.23
51315;BME280;65787;59.922;10.742;2023-05-22T07:25:05;101615.09;;;24.72;24.43
51315;BME280;65787;59.922;10.742;2023-05-22T07:27:30;101615.72;;;24.85;24.21
51315;BME280;65787;59.922;10.742;2023-05-22T07:29:56;101576.88;;;24.71;23.71
51315;BME280;65787;59.922;10.742;2023-05-22T07:32:21;101606.47;;;24.96;23.95
51315;BME280;65787;59.922;10.742;2023-05-22T07:34:46;101597.97;;;24.98;23.96
51315;BME280;65787;59.922;10.742;2023-05-22T07:37:12;101596.94;;;25.04;23.68
51315;BME280;65787;59.922;10.742;2023-05-22T07:39:38;101605.78;;;25.11;23.34
51315;BME280;65787;59.922;10.742;2023-05-22T07:42:03;101594.78;;;25.11;23.76
51315;BME280;65787;59.922;10.742;2023-05-22T07:44:29;101599.50;;;25.16;23.40
51315;BME280;65787;59.922;10.742;2023-05-22T07:46:54;101589.06;;;25.18;23.91
51315;BME280;65787;59.922;10.742;2023-05-22T07:49:19;101586.63;;;25.21;23.59
51315;BME280;65787;59.922;10.742;2023-05-22T07:51:46;101592.28;;;25.42;23.30
51315;BME280;65787;59.922;10.742;2023-05-22T07:54:11;101582.16;;;25.53;23.11
51315;BME280;65787;59.922;10.742;2023-05-22T07:56:39;101589.91;;;25.61;23.26
51315;BME280;65787;59.922;10.742;2023-05-22T07:59:05;101583.53;;;25.55;22.89
51315;BME280;65787;59.922;10.742;2023-05-22T08:01:31;101584.72;;;25.69;22.71
51315;BME280;65787;59.922;10.742;2023-05-22T08:03:56;101577.09;;;25.82;22.65
51315;BME280;65787;59.922;10.742;2023-05-22T08:06:22;101587.56;;;25.90;23.01
51315;BME280;65787;59.922;10.742;2023-05-22T08:08:47;101585.41;;;25.97;24.11
51315;BME280;65787;59.922;10.742;2023-05-22T08:11:13;101585.47;;;26.13;24.18
51315;BME280;65787;59.922;10.742;2023-05-22T08:13:39;101582.19;;;26.26;24.09
51315;BME280;65787;59.922;10.742;2023-05-22T08:16:04;101581.66;;;26.44;23.94
51315;BME280;65787;59.922;10.742;2023-05-22T08:18:29;101574.84;;;26.62;23.95
51315;BME280;65787;59.922;10.742;2023-05-22T08:20:55;101580.06;;;26.79;22.95
51315;BME280;65787;59.922;10.742;2023-05-22T08:23:20;101573.44;;;26.91;23.12
51315;BME280;65787;59.922;10.742;2023-05-22T08:25:45;101569.59;;;26.97;22.91
51315;BME280;65787;59.922;10.742;2023-05-22T08:28:11;101564.88;;;27.08;22.73
51315;BME280;65787;59.922;10.742;2023-05-22T08:30:36;101560.44;;;27.22;22.41
51315;BME280;65787;59.922;10.742;2023-05-22T08:33:01;101562.38;;;27.37;22.20
51315;BME280;65787;59.922;10.742;2023-05-22T08:35:26;101563.13;;;27.58;22.42
51315;BME280;65787;59.922;10.742;2023-05-22T08:37:52;101562.31;;;27.52;22.43
51315;BME280;65787;59.922;10.742;2023-05-22T08:40:17;101568.63;;;27.68;22.54
51315;BME280;65787;59.922;10.742;2023-05-22T08:42:45;101557.56;;;27.73;22.15
51315;BME280;65787;59.922;10.742;2023-05-22T08:45:10;101550.34;;;27.83;22.07
51315;BME280;65787;59.922;10.742;2023-05-22T08:47:35;101552.16;;;28.08;22.29
51315;BME280;65787;59.922;10.742;2023-05-22T08:50:01;101549.00;;;28.25;21.99
51315;BME280;65787;59.922;10.742;2023-05-22T08:55:26;101537.28;;;28.43;21.94
51315;BME280;65787;59.922;10.742;2023-05-22T08:57:51;101545.38;;;28.34;21.80
51315;BME280;65787;59.922;10.742;2023-05-22T09:00:19;101536.75;;;28.41;22.10
51315;BME280;65787;59.922;10.742;2023-05-22T09:02:45;101531.75;;;28.43;21.90
51315;BME280;65787;59.922;10.742;2023-05-22T09:05:10;101538.97;;;28.39;21.83
51315;BME280;65787;59.922;10.742;2023-05-22T09:07:36;101538.16;;;28.38;21.62
51315;BME280;65787;59.922;10.742;2023-05-22T09:10:03;101537.44;;;28.23;20.91
51315;BME280;65787;59.922;10.742;2023-05-22T09:12:30;101535.78;;;28.22;20.55
51315;BME280;65787;59.922;10.742;2023-05-22T09:14:55;101525.88;;;28.15;20.97
51315;BME280;65787;59.922;10.742;2023-05-22T09:17:22;101524.63;;;27.97;20.96
51315;BME280;65787;59.922;10.742;2023-05-22T09:19:48;101523.16;;;28.10;20.99
51315;BME280;65787;59.922;10.742;2023-05-22T09:22:13;101522.03;;;28.11;21.14
51315;BME280;65787;59.922;10.742;2023-05-22T09:24:43;101521.81;;;28.03;20.85
51315;BME280;65787;59.922;10.742;2023-05-22T09:27:10;101519.56;;;28.10;20.94
51315;BME280;65787;59.922;10.742;2023-05-22T09:29:48;101517.59;;;28.15;21.10
51315;BME280;65787;59.922;10.742;2023-05-22T09:32:14;101514.13;;;28.34;21.04
51315;BME280;65787;59.922;10.742;2023-05-22T09:34:40;101513.81;;;28.41;20.56
51315;BME280;65787;59.922;10.742;2023-05-22T09:37:05;101513.78;;;28.46;20.74
51315;BME280;65787;59.922;10.742;2023-05-22T09:39:42;101504.50;;;28.31;20.15
51315;BME280;65787;59.922;10.742;2023-05-22T09:42:08;101511.59;;;28.43;20.19
51315;BME280;65787;59.922;10.742;2023-05-22T09:44:37;101503.72;;;28.60;20.51
51315;BME280;65787;59.922;10.742;2023-05-22T09:47:04;101500.75;;;28.81;20.25
51315;BME280;65787;59.922;10.742;2023-05-22T09:49:30;101500.25;;;29.03;19.96
51315;BME280;65787;59.922;10.742;2023-05-22T09:51:55;101489.09;;;29.13;19.53
51315;BME280;65787;59.922;10.742;2023-05-22T09:54:21;101497.44;;;29.37;19.08
51315;BME280;65787;59.922;10.742;2023-05-22T09:56:49;101483.84;;;29.60;18.63
51315;BME280;65787;59.922;10.742;2023-05-22T09:59:19;101479.38;;;29.83;18.88
51315;BME280;65787;59.922;10.742;2023-05-22T10:01:50;101483.66;;;30.13;18.80
51315;BME280;65787;59.922;10.742;2023-05-22T10:04:16;101479.09;;;30.22;18.44
51315;BME280;65787;59.922;10.742;2023-05-22T10:06:42;101481.44;;;30.29;17.89
51315;BME280;65787;59.922;10.742;2023-05-22T10:09:09;101478.06;;;30.51;18.50
51315;BME280;65787;59.922;10.742;2023-05-22T10:11:38;101470.00;;;30.68;18.69
51315;BME280;65787;59.922;10.742;2023-05-22T10:14:04;101460.53;;;30.69;18.40
51315;BME280;65787;59.922;10.742;2023-05-22T10:16:30;101463.84;;;30.85;18.74
51315;BME280;65787;59.922;10.742;2023-05-22T10:18:55;101455.06;;;30.97;17.97
51315;BME280;65787;59.922;10.742;2023-05-22T10:21:21;101453.00;;;31.03;17.98
51315;BME280;65787;59.922;10.742;2023-05-22T10:23:47;101456.91;;;31.16;17.46
51315;BME280;65787;59.922;10.742;2023-05-22T10:26:13;101454.53;;;31.23;18.00
51315;BME280;65787;59.922;10.742;2023-05-22T10:28:48;101452.97;;;31.31;17.75
51315;BME280;65787;59.922;10.742;2023-05-22T10:34:00;101443.75;;;31.35;17.67
51315;BME280;65787;59.922;10.742;2023-05-22T10:36:46;101449.50;;;31.25;17.27
51315;BME280;65787;59.922;10.742;2023-05-22T10:41:46;101441.09;;;31.67;16.77
51315;BME280;65787;59.922;10.742;2023-05-22T10:44:11;101438.13;;;31.99;16.86
51315;BME280;65787;59.922;10.742;2023-05-22T10:46:37;101433.44;;;32.31;16.83
51315;BME280;65787;59.922;10.742;2023-05-22T10:49:02;101427.63;;;32.64;15.91
51315;BME280;65787;59.922;10.742;2023-05-22T10:51:27;101433.72;;;32.84;15.87
51315;BME280;65787;59.922;10.742;2023-05-22T10:53:59;101429.41;;;33.09;16.33
51315;BME280;65787;59.922;10.742;2023-05-22T10:56:33;101424.41;;;33.20;15.17
51315;BME280;65787;59.922;10.742;2023-05-22T10:58:59;101422.44;;;33.20;15.23
51315;BME280;65787;59.922;10.742;2023-05-22T11:01:29;101420.81;;;33.36;15.80
51315;BME280;65787;59.922;10.742;2023-05-22T11:03:58;101407.06;;;33.58;15.25
51315;BME280;65787;59.922;10.742;2023-05-22T11:06:31;101405.25;;;33.62;15.12
51315;BME280;65787;59.922;10.742;2023-05-22T11:08:56;101409.22;;;33.61;15.32
51315;BME280;65787;59.922;10.742;2023-05-22T11:11:23;101404.81;;;33.68;14.76
51315;BME280;65787;59.922;10.742;2023-05-22T11:13:52;101403.31;;;33.88;14.78
51315;BME280;65787;59.922;10.742;2023-05-22T11:16:18;101394.78;;;34.02;15.00
51315;BME280;65787;59.922;10.742;2023-05-22T11:18:43;101393.09;;;34.10;14.81
51315;BME280;65787;59.922;10.742;2023-05-22T11:21:09;101386.56;;;34.14;14.58
51315;BME280;65787;59.922;10.742;2023-05-22T11:23:35;101384.38;;;34.38;14.40
51315;BME280;65787;59.922;10.742;2023-05-22T11:26:19;101385.38;;;34.33;14.18
51315;BME280;65787;59.922;10.742;2023-05-22T11:28:49;101375.69;;;34.30;14.48
51315;BME280;65787;59.922;10.742;2023-05-22T11:31:16;101381.16;;;34.27;14.83
51315;BME280;65787;59.922;10.742;2023-05-22T11:33:41;101376.22;;;34.32;14.75
51315;BME280;65787;59.922;10.742;2023-05-22T11:36:07;101372.91;;;34.30;14.90
51315;BME280;65787;59.922;10.742;2023-05-22T11:38:33;101369.09;;;34.44;15.41
51315;BME280;65787;59.922;10.742;2023-05-22T11:40:58;101370.53;;;34.59;14.32
51315;BME280;65787;59.922;10.742;2023-05-22T11:43:30;101365.81;;;34.80;14.40
51315;BME280;65787;59.922;10.742;2023-05-22T11:46:10;101372.88;;;34.86;14.23
51315;BME280;65787;59.922;10.742;2023-05-22T11:48:39;101372.28;;;34.72;13.59
51315;BME280;65787;59.922;10.742;2023-05-22T11:51:05;101370.16;;;34.69;13.63
51315;BME280;65787;59.922;10.742;2023-05-22T11:53:31;101364.88;;;34.67;13.38
51315;BME280;65787;59.922;10.742;2023-05-22T11:56:00;101361.09;;;34.81;13.41
51315;BME280;65787;59.922;10.742;2023-05-22T11:58:26;101354.47;;;34.85;12.76
51315;BME280;65787;59.922;10.742;2023-05-22T12:00:56;101365.25;;;34.96;12.64
51315;BME280;65787;59.922;10.742;2023-05-22T12:03:21;101359.94;;;35.03;11.72
51315;BME280;65787;59.922;10.742;2023-05-22T12:05:46;101353.88;;;35.01;12.58
51315;BME280;65787;59.922;10.742;2023-05-22T12:08:14;101348.44;;;35.04;12.34
51315;BME280;65787;59.922;10.742;2023-05-22T12:10:44;101343.56;;;35.22;12.28
51315;BME280;65787;59.922;10.742;2023-05-22T12:13:10;101333.16;;;35.32;12.84
51315;BME280;65787;59.922;10.742;2023-05-22T12:15:35;101332.69;;;35.30;12.75
51315;BME280;65787;59.922;10.742;2023-05-22T12:18:00;101322.81;;;35.02;12.99
51315;BME280;65787;59.922;10.742;2023-05-22T12:20:29;101339.41;;;35.28;12.22
51315;BME280;65787;59.922;10.742;2023-05-22T12:22:54;101328.94;;;35.25;12.52
51315;BME280;65787;59.922;10.742;2023-05-22T12:25:20;101315.63;;;35.43;12.69
51315;BME280;65787;59.922;10.742;2023-05-22T12:27:48;101316.72;;;35.72;12.90
51315;BME280;65787;59.922;10.742;2023-05-22T12:30:15;101315.34;;;35.91;12.29
51315;BME280;65787;59.922;10.742;2023-05-22T12:32:45;101310.66;;;36.40;13.02
51315;BME280;65787;59.922;10.742;2023-05-22T12:35:14;101312.53;;;36.61;11.19
51315;BME280;65787;59.922;10.742;2023-05-22T12:37:39;101312.59;;;37.01;12.05
51315;BME280;65787;59.922;10.742;2023-05-22T12:40:11;101292.88;;;37.38;11.53
51315;BME280;65787;59.922;10.742;2023-05-22T12:42:36;101289.13;;;37.75;11.35
51315;BME280;65787;59.922;10.742;2023-05-22T12:45:01;101287.03;;;38.04;10.82
51315;BME280;65787;59.922;10.742;2023-05-22T12:47:27;101286.50;;;38.46;11.35
51315;BME280;65787;59.922;10.742;2023-05-22T12:49:52;101282.94;;;38.65;10.07